sensor_id;sensor_type;location;lat;lon;timestamp;P1;durP1;ratioP1;P2;durP2;ratioP2
4825;SDS011;2427;50.934;6.776;2023-10-31T00:01:25;4.90;;;4.47;;
4825;SDS011;2427;50.934;6.776;2023-10-31T00:03:50;5.47;;;4.97;;
4825;SDS011;2427;50.934;6.776;2023-10-31T00:06:16;6.20;;;5.33;;
4825;SDS011;2427;50.934;6.776;2023-10-31T00:08:41;7.83;;;5.37;;
4825;SDS011;2427;50.934;6.776;2023-10-31T00:11:07;6.53;;;5.93;;
4825;SDS011;2427;50.934;6.776;2023-10-31T00:13:33;4.90;;;4.50;;
4825;SDS011;2427;50.934;6.776;2023-10-31T00:15:58;5.73;;;5.23;;
4825;SDS011;2427;50.934;6.776;2023-10-31T00:18:24;6.07;;;5.47;;
4825;SDS011;2427;50.934;6.776;2023-10-31T00:20:49;6.07;;;5.33;;
4825;SDS011;2427;50.934;6.776;2023-10-31T00:23:15;4.90;;;4.50;;
4825;SDS011;2427;50.934;6.776;2023-10-31T00:25:40;4.40;;;4.00;;
4825;SDS011;2427;50.934;6.776;2023-10-31T00:28:06;4.60;;;4.20;;
4825;SDS011;2427;50.934;6.776;2023-10-31T00:30:32;4.43;;;3.97;;
4825;SDS011;2427;50.934;6.776;2023-10-31T00:32:58;4.00;;;3.60;;
4825;SDS011;2427;50.934;6.776;2023-10-31T00:35:23;3.87;;;3.57;;
4825;SDS011;2427;50.934;6.776;2023-10-31T00:37:49;2.90;;;2.60;;
4825;SDS011;2427;50.934;6.776;2023-10-31T00:40:14;3.77;;;3.47;;
4825;SDS011;2427;50.934;6.776;2023-10-31T00:42:41;4.90;;;3.40;;
4825;SDS011;2427;50.934;6.776;2023-10-31T00:45:07;4.80;;;3.50;;
4825;SDS011;2427;50.934;6.776;2023-10-31T00:47:33;3.90;;;2.87;;
4825;SDS011;2427;50.934;6.776;2023-10-31T00:49:59;4.43;;;3.13;;
4825;SDS011;2427;50.934;6.776;2023-10-31T00:52:24;4.00;;;3.30;;
4825;SDS011;2427;50.934;6.776;2023-10-31T00:54:50;3.27;;;2.97;;
4825;SDS011;2427;50.934;6.776;2023-10-31T00:57:16;4.20;;;2.77;;
4825;SDS011;2427;50.934;6.776;2023-10-31T00:59:41;3.30;;;2.70;;
4825;SDS011;2427;50.934;6.776;2023-10-31T01:02:07;2.93;;;2.73;;
4825;SDS011;2427;50.934;6.776;2023-10-31T01:04:32;2.83;;;2.60;;
4825;SDS011;2427;50.934;6.776;2023-10-31T01:06:58;8.10;;;2.90;;
4825;SDS011;2427;50.934;6.776;2023-10-31T01:09:24;5.20;;;3.00;;
4825;SDS011;2427;50.934;6.776;2023-10-31T01:11:49;6.03;;;3.20;;
4825;SDS011;2427;50.934;6.776;2023-10-31T01:14:15;4.00;;;2.60;;
4825;SDS011;2427;50.934;6.776;2023-10-31T01:16:40;4.13;;;2.80;;
4825;SDS011;2427;50.934;6.776;2023-10-31T01:19:06;5.87;;;2.60;;
4825;SDS011;2427;50.934;6.776;2023-10-31T01:21:32;2.80;;;2.13;;
4825;SDS011;2427;50.934;6.776;2023-10-31T01:23:58;4.10;;;2.40;;
4825;SDS011;2427;50.934;6.776;2023-10-31T01:26:24;2.70;;;1.80;;
4825;SDS011;2427;50.934;6.776;2023-10-31T01:28:50;6.40;;;2.50;;
4825;SDS011;2427;50.934;6.776;2023-10-31T01:31:16;5.50;;;2.20;;
4825;SDS011;2427;50.934;6.776;2023-10-31T01:33:42;8.50;;;2.57;;
4825;SDS011;2427;50.934;6.776;2023-10-31T01:36:07;6.80;;;2.30;;
4825;SDS011;2427;50.934;6.776;2023-10-31T01:38:35;6.20;;;2.07;;
4825;SDS011;2427;50.934;6.776;2023-10-31T01:41:00;2.17;;;1.97;;
4825;SDS011;2427;50.934;6.776;2023-10-31T01:43:33;3.67;;;1.77;;
4825;SDS011;2427;50.934;6.776;2023-10-31T01:46:00;6.03;;;1.77;;
4825;SDS011;2427;50.934;6.776;2023-10-31T01:48:26;3.20;;;1.90;;
4825;SDS011;2427;50.934;6.776;2023-10-31T01:50:54;5.00;;;1.67;;
4825;SDS011;2427;50.934;6.776;2023-10-31T01:53:20;2.10;;;1.63;;
4825;SDS011;2427;50.934;6.776;2023-10-31T01:55:47;3.90;;;1.63;;
4825;SDS011;2427;50.934;6.776;2023-10-31T01:58:12;2.23;;;1.43;;
4825;SDS011;2427;50.934;6.776;2023-10-31T02:11:01;5.93;;;1.83;;
4825;SDS011;2427;50.934;6.776;2023-10-31T02:13:27;6.23;;;1.90;;
4825;SDS011;2427;50.934;6.776;2023-10-31T02:15:52;2.70;;;1.43;;
4825;SDS011;2427;50.934;6.776;2023-10-31T02:18:18;5.40;;;2.27;;
4825;SDS011;2427;50.934;6.776;2023-10-31T02:20:43;3.00;;;2.07;;
4825;SDS011;2427;50.934;6.776;2023-10-31T02:23:09;5.07;;;1.97;;
4825;SDS011;2427;50.934;6.776;2023-10-31T02:25:34;4.20;;;2.07;;
4825;SDS011;2427;50.934;6.776;2023-10-31T02:28:00;3.17;;;2.00;;
4825;SDS011;2427;50.934;6.776;2023-10-31T02:30:26;6.77;;;2.20;;
4825;SDS011;2427;50.934;6.776;2023-10-31T02:32:51;7.53;;;2.40;;
4825;SDS011;2427;50.934;6.776;2023-10-31T02:35:17;4.13;;;2.40;;
4825;SDS011;2427;50.934;6.776;2023-10-31T02:37:44;3.33;;;2.03;;
4825;SDS011;2427;50.934;6.776;2023-10-31T02:40:13;2.33;;;1.83;;
4825;SDS011;2427;50.934;6.776;2023-10-31T02:42:39;3.50;;;1.60;;
4825;SDS011;2427;50.934;6.776;2023-10-31T02:45:05;2.33;;;1.90;;
4825;SDS011;2427;50.934;6.776;2023-10-31T02:47:31;2.30;;;1.67;;
4825;SDS011;2427;50.934;6.776;2023-10-31T02:49:57;2.67;;;2.00;;
4825;SDS011;2427;50.934;6.776;2023-10-31T02:52:23;4.33;;;2.50;;
4825;SDS011;2427;50.934;6.776;2023-10-31T02:54:48;6.60;;;2.40;;
4825;SDS011;2427;50.934;6.776;2023-10-31T02:57:14;3.23;;;1.80;;
4825;SDS011;2427;50.934;6.776;2023-10-31T02:59:40;4.20;;;2.23;;
4825;SDS011;2427;50.934;6.776;2023-10-31T03:02:06;3.40;;;2.13;;
4825;SDS011;2427;50.934;6.776;2023-10-31T03:04:31;2.97;;;1.90;;
4825;SDS011;2427;50.934;6.776;2023-10-31T03:06:57;5.20;;;2.03;;
4825;SDS011;2427;50.934;6.776;2023-10-31T03:09:22;2.23;;;2.03;;
4825;SDS011;2427;50.934;6.776;2023-10-31T03:11:48;5.03;;;1.60;;
4825;SDS011;2427;50.934;6.776;2023-10-31T03:14:14;4.93;;;1.90;;
4825;SDS011;2427;50.934;6.776;2023-10-31T03:16:39;2.23;;;1.47;;
4825;SDS011;2427;50.934;6.776;2023-10-31T03:19:05;2.53;;;1.43;;
4825;SDS011;2427;50.934;6.776;2023-10-31T03:21:30;2.07;;;1.60;;
4825;SDS011;2427;50.934;6.776;2023-10-31T03:23:56;1.87;;;1.23;;
4825;SDS011;2427;50.934;6.776;2023-10-31T03:26:22;2.63;;;1.30;;
4825;SDS011;2427;50.934;6.776;2023-10-31T03:28:48;2.43;;;1.40;;
4825;SDS011;2427;50.934;6.776;2023-10-31T03:31:13;1.90;;;1.37;;
4825;SDS011;2427;50.934;6.776;2023-10-31T03:33:40;2.57;;;1.53;;
4825;SDS011;2427;50.934;6.776;2023-10-31T03:36:06;1.87;;;1.47;;
4825;SDS011;2427;50.934;6.776;2023-10-31T03:38:33;13.47;;;1.80;;
4825;SDS011;2427;50.934;6.776;2023-10-31T03:40:59;2.20;;;1.37;;
4825;SDS011;2427;50.934;6.776;2023-10-31T03:43:25;1.47;;;1.37;;
4825;SDS011;2427;50.934;6.776;2023-10-31T03:45:51;1.87;;;1.30;;
4825;SDS011;2427;50.934;6.776;2023-10-31T03:48:16;2.93;;;1.83;;
4825;SDS011;2427;50.934;6.776;2023-10-31T03:50:42;2.07;;;1.53;;
4825;SDS011;2427;50.934;6.776;2023-10-31T03:53:08;1.90;;;1.30;;
4825;SDS011;2427;50.934;6.776;2023-10-31T03:55:34;2.40;;;1.07;;
4825;SDS011;2427;50.934;6.776;2023-10-31T03:57:59;1.60;;;1.37;;
4825;SDS011;2427;50.934;6.776;2023-10-31T04:00:25;6.53;;;1.60;;
4825;SDS011;2427;50.934;6.776;2023-10-31T04:02:51;2.00;;;1.37;;
4825;SDS011;2427;50.934;6.776;2023-10-31T04:05:16;1.63;;;1.20;;
4825;SDS011;2427;50.934;6.776;2023-10-31T04:07:42;1.87;;;1.50;;
4825;SDS011;2427;50.934;6.776;2023-10-31T04:10:08;1.60;;;1.30;;
4825;SDS011;2427;50.934;6.776;2023-10-31T04:12:34;2.57;;;1.40;;
4825;SDS011;2427;50.934;6.776;2023-10-31T04:15:00;9.63;;;1.33;;
4825;SDS011;2427;50.934;6.776;2023-10-31T04:17:26;2.17;;;1.27;;
4825;SDS011;2427;50.934;6.776;2023-10-31T04:19:51;4.23;;;1.60;;
4825;SDS011;2427;50.934;6.776;2023-10-31T04:22:17;2.00;;;1.30;;
4825;SDS011;2427;50.934;6.776;2023-10-31T04:24:43;1.30;;;1.20;;
4825;SDS011;2427;50.934;6.776;2023-10-31T04:27:08;2.30;;;1.40;;
4825;SDS011;2427;50.934;6.776;2023-10-31T04:29:34;6.87;;;1.30;;
4825;SDS011;2427;50.934;6.776;2023-10-31T04:31:59;1.30;;;1.20;;
4825;SDS011;2427;50.934;6.776;2023-10-31T04:34:25;1.90;;;1.60;;
4825;SDS011;2427;50.934;6.776;2023-10-31T04:36:50;2.80;;;1.93;;
4825;SDS011;2427;50.934;6.776;2023-10-31T04:39:16;1.23;;;1.13;;
4825;SDS011;2427;50.934;6.776;2023-10-31T04:41:41;2.50;;;1.50;;
4825;SDS011;2427;50.934;6.776;2023-10-31T04:44:07;1.43;;;1.33;;
4825;SDS011;2427;50.934;6.776;2023-10-31T04:46:33;2.07;;;1.70;;
4825;SDS011;2427;50.934;6.776;2023-10-31T04:48:58;2.40;;;1.60;;
4825;SDS011;2427;50.934;6.776;2023-10-31T04:51:24;1.47;;;1.37;;
4825;SDS011;2427;50.934;6.776;2023-10-31T04:53:50;1.90;;;1.60;;
4825;SDS011;2427;50.934;6.776;2023-10-31T04:56:15;2.30;;;1.83;;
4825;SDS011;2427;50.934;6.776;2023-10-31T04:58:42;1.60;;;1.37;;
4825;SDS011;2427;50.934;6.776;2023-10-31T05:01:11;1.50;;;1.40;;
4825;SDS011;2427;50.934;6.776;2023-10-31T05:03:38;1.63;;;1.40;;
4825;SDS011;2427;50.934;6.776;2023-10-31T05:06:04;1.83;;;1.17;;
4825;SDS011;2427;50.934;6.776;2023-10-31T05:08:30;1.93;;;1.70;;
4825;SDS011;2427;50.934;6.776;2023-10-31T05:10:57;2.50;;;1.80;;
4825;SDS011;2427;50.934;6.776;2023-10-31T05:13:23;2.13;;;1.80;;
4825;SDS011;2427;50.934;6.776;2023-10-31T05:15:49;1.47;;;1.37;;
4825;SDS011;2427;50.934;6.776;2023-10-31T05:18:15;1.80;;;1.70;;
4825;SDS011;2427;50.934;6.776;2023-10-31T05:20:41;2.17;;;2.00;;
4825;SDS011;2427;50.934;6.776;2023-10-31T05:23:07;2.93;;;1.70;;
4825;SDS011;2427;50.934;6.776;2023-10-31T05:25:33;2.83;;;1.60;;
4825;SDS011;2427;50.934;6.776;2023-10-31T05:27:59;1.60;;;1.50;;
4825;SDS011;2427;50.934;6.776;2023-10-31T05:30:25;2.13;;;1.97;;
4825;SDS011;2427;50.934;6.776;2023-10-31T05:32:51;1.60;;;1.50;;
4825;SDS011;2427;50.934;6.776;2023-10-31T05:35:16;3.80;;;1.70;;
4825;SDS011;2427;50.934;6.776;2023-10-31T05:37:42;1.80;;;1.70;;
4825;SDS011;2427;50.934;6.776;2023-10-31T05:40:09;3.77;;;2.10;;
4825;SDS011;2427;50.934;6.776;2023-10-31T05:42:35;1.90;;;1.70;;
4825;SDS011;2427;50.934;6.776;2023-10-31T05:45:01;2.13;;;1.93;;
4825;SDS011;2427;50.934;6.776;2023-10-31T05:47:26;2.20;;;2.10;;
4825;SDS011;2427;50.934;6.776;2023-10-31T05:49:52;1.80;;;1.70;;
4825;SDS011;2427;50.934;6.776;2023-10-31T05:52:19;2.20;;;1.80;;
4825;SDS011;2427;50.934;6.776;2023-10-31T05:54:45;3.97;;;1.80;;
4825;SDS011;2427;50.934;6.776;2023-10-31T05:57:10;1.70;;;1.23;;
4825;SDS011;2427;50.934;6.776;2023-10-31T05:59:36;4.80;;;1.90;;
4825;SDS011;2427;50.934;6.776;2023-10-31T06:02:02;1.70;;;1.40;;
4825;SDS011;2427;50.934;6.776;2023-10-31T06:04:27;4.03;;;1.50;;
4825;SDS011;2427;50.934;6.776;2023-10-31T06:06:53;2.40;;;1.67;;
4825;SDS011;2427;50.934;6.776;2023-10-31T06:09:19;2.07;;;1.73;;
4825;SDS011;2427;50.934;6.776;2023-10-31T06:11:44;2.00;;;1.90;;
4825;SDS011;2427;50.934;6.776;2023-10-31T06:14:10;1.80;;;1.63;;
4825;SDS011;2427;50.934;6.776;2023-10-31T06:16:43;2.30;;;2.10;;
4825;SDS011;2427;50.934;6.776;2023-10-31T06:19:08;2.70;;;2.10;;
4825;SDS011;2427;50.934;6.776;2023-10-31T06:21:35;2.00;;;1.90;;
4825;SDS011;2427;50.934;6.776;2023-10-31T06:24:00;2.83;;;2.37;;
4825;SDS011;2427;50.934;6.776;2023-10-31T06:26:27;2.43;;;1.83;;
4825;SDS011;2427;50.934;6.776;2023-10-31T06:28:53;2.70;;;2.10;;
4825;SDS011;2427;50.934;6.776;2023-10-31T06:31:18;2.40;;;2.20;;
4825;SDS011;2427;50.934;6.776;2023-10-31T06:33:44;2.53;;;2.33;;
4825;SDS011;2427;50.934;6.776;2023-10-31T06:36:09;5.77;;;2.57;;
4825;SDS011;2427;50.934;6.776;2023-10-31T06:38:35;4.77;;;2.90;;
4825;SDS011;2427;50.934;6.776;2023-10-31T06:41:00;2.60;;;2.23;;
4825;SDS011;2427;50.934;6.776;2023-10-31T06:43:26;3.10;;;2.40;;
4825;SDS011;2427;50.934;6.776;2023-10-31T06:45:53;3.20;;;2.77;;
4825;SDS011;2427;50.934;6.776;2023-10-31T06:48:18;3.30;;;2.97;;
4825;SDS011;2427;50.934;6.776;2023-10-31T06:50:44;2.90;;;2.63;;
4825;SDS011;2427;50.934;6.776;2023-10-31T06:53:09;4.30;;;2.90;;
4825;SDS011;2427;50.934;6.776;2023-10-31T06:55:35;3.43;;;3.13;;
4825;SDS011;2427;50.934;6.776;2023-10-31T06:58:01;3.10;;;2.80;;
4825;SDS011;2427;50.934;6.776;2023-10-31T07:00:27;3.57;;;2.60;;
4825;SDS011;2427;50.934;6.776;2023-10-31T07:02:53;4.10;;;3.17;;
4825;SDS011;2427;50.934;6.776;2023-10-31T07:05:18;4.50;;;2.57;;
4825;SDS011;2427;50.934;6.776;2023-10-31T07:07:45;3.30;;;3.00;;
4825;SDS011;2427;50.934;6.776;2023-10-31T07:10:11;5.40;;;3.30;;
4825;SDS011;2427;50.934;6.776;2023-10-31T07:12:37;4.43;;;3.10;;
4825;SDS011;2427;50.934;6.776;2023-10-31T07:15:02;3.23;;;2.93;;
4825;SDS011;2427;50.934;6.776;2023-10-31T07:17:28;3.83;;;2.60;;
4825;SDS011;2427;50.934;6.776;2023-10-31T07:19:55;5.10;;;3.30;;
4825;SDS011;2427;50.934;6.776;2023-10-31T07:22:20;3.37;;;2.63;;
4825;SDS011;2427;50.934;6.776;2023-10-31T07:24:47;5.00;;;3.07;;
4825;SDS011;2427;50.934;6.776;2023-10-31T07:27:13;2.70;;;2.50;;
4825;SDS011;2427;50.934;6.776;2023-10-31T07:29:39;3.90;;;2.80;;
4825;SDS011;2427;50.934;6.776;2023-10-31T07:32:06;2.67;;;2.47;;
4825;SDS011;2427;50.934;6.776;2023-10-31T07:34:33;7.70;;;2.67;;
4825;SDS011;2427;50.934;6.776;2023-10-31T07:36:58;4.13;;;2.90;;
4825;SDS011;2427;50.934;6.776;2023-10-31T07:39:25;3.43;;;2.40;;
4825;SDS011;2427;50.934;6.776;2023-10-31T07:41:51;3.70;;;1.93;;
4825;SDS011;2427;50.934;6.776;2023-10-31T07:44:16;4.30;;;3.40;;
4825;SDS011;2427;50.934;6.776;2023-10-31T07:46:42;2.60;;;2.40;;
4825;SDS011;2427;50.934;6.776;2023-10-31T07:49:07;3.90;;;2.70;;
4825;SDS011;2427;50.934;6.776;2023-10-31T07:51:33;3.80;;;3.27;;
4825;SDS011;2427;50.934;6.776;2023-10-31T07:53:59;2.37;;;2.17;;
4825;SDS011;2427;50.934;6.776;2023-10-31T07:56:24;4.47;;;3.37;;
4825;SDS011;2427;50.934;6.776;2023-10-31T07:58:50;2.80;;;2.60;;
4825;SDS011;2427;50.934;6.776;2023-10-31T08:01:17;3.40;;;3.07;;
4825;SDS011;2427;50.934;6.776;2023-10-31T08:03:43;3.67;;;3.10;;
4825;SDS011;2427;50.934;6.776;2023-10-31T08:06:10;3.60;;;3.30;;
4825;SDS011;2427;50.934;6.776;2023-10-31T08:08:36;3.47;;;3.10;;
4825;SDS011;2427;50.934;6.776;2023-10-31T08:11:01;5.73;;;3.40;;
4825;SDS011;2427;50.934;6.776;2023-10-31T08:13:28;6.90;;;3.70;;
4825;SDS011;2427;50.934;6.776;2023-10-31T08:15:54;3.53;;;2.50;;
4825;SDS011;2427;50.934;6.776;2023-10-31T08:18:19;5.40;;;3.57;;
4825;SDS011;2427;50.934;6.776;2023-10-31T08:20:46;3.40;;;3.10;;
4825;SDS011;2427;50.934;6.776;2023-10-31T08:23:14;3.60;;;3.30;;
4825;SDS011;2427;50.934;6.776;2023-10-31T08:25:40;3.33;;;3.03;;
4825;SDS011;2427;50.934;6.776;2023-10-31T08:28:06;3.90;;;3.50;;
4825;SDS011;2427;50.934;6.776;2023-10-31T08:30:31;2.70;;;2.50;;
4825;SDS011;2427;50.934;6.776;2023-10-31T08:32:57;3.40;;;2.63;;
4825;SDS011;2427;50.934;6.776;2023-10-31T08:35:23;4.87;;;3.27;;
4825;SDS011;2427;50.934;6.776;2023-10-31T08:37:48;5.67;;;3.60;;
4825;SDS011;2427;50.934;6.776;2023-10-31T08:40:14;2.60;;;2.40;;
4825;SDS011;2427;50.934;6.776;2023-10-31T08:42:40;3.20;;;2.70;;
4825;SDS011;2427;50.934;6.776;2023-10-31T08:45:06;5.63;;;3.27;;
4825;SDS011;2427;50.934;6.776;2023-10-31T08:47:33;4.10;;;3.03;;
4825;SDS011;2427;50.934;6.776;2023-10-31T08:49:58;3.10;;;2.80;;
4825;SDS011;2427;50.934;6.776;2023-10-31T08:52:24;2.93;;;2.60;;
4825;SDS011;2427;50.934;6.776;2023-10-31T08:54:50;3.07;;;2.87;;
4825;SDS011;2427;50.934;6.776;2023-10-31T08:57:15;3.00;;;2.70;;
4825;SDS011;2427;50.934;6.776;2023-10-31T08:59:41;6.60;;;2.90;;
4825;SDS011;2427;50.934;6.776;2023-10-31T09:02:06;3.80;;;2.70;;
4825;SDS011;2427;50.934;6.776;2023-10-31T09:04:32;3.10;;;2.80;;
4825;SDS011;2427;50.934;6.776;2023-10-31T09:06:57;3.33;;;2.80;;
4825;SDS011;2427;50.934;6.776;2023-10-31T09:09:23;3.83;;;2.70;;
4825;SDS011;2427;50.934;6.776;2023-10-31T09:11:48;2.87;;;2.67;;
4825;SDS011;2427;50.934;6.776;2023-10-31T09:14:14;4.37;;;2.80;;
4825;SDS011;2427;50.934;6.776;2023-10-31T09:16:40;3.07;;;2.83;;
4825;SDS011;2427;50.934;6.776;2023-10-31T09:19:05;4.73;;;3.37;;
4825;SDS011;2427;50.934;6.776;2023-10-31T09:21:31;4.40;;;2.70;;
4825;SDS011;2427;50.934;6.776;2023-10-31T09:23:57;4.80;;;2.47;;
4825;SDS011;2427;50.934;6.776;2023-10-31T09:26:22;4.87;;;2.53;;
4825;SDS011;2427;50.934;6.776;2023-10-31T09:28:48;3.10;;;2.30;;
4825;SDS011;2427;50.934;6.776;2023-10-31T09:31:17;2.50;;;2.30;;
4825;SDS011;2427;50.934;6.776;2023-10-31T09:33:43;6.50;;;2.57;;
4825;SDS011;2427;50.934;6.776;2023-10-31T09:36:09;3.80;;;1.80;;
4825;SDS011;2427;50.934;6.776;2023-10-31T09:38:35;2.13;;;1.93;;
4825;SDS011;2427;50.934;6.776;2023-10-31T09:41:00;2.03;;;1.83;;
4825;SDS011;2427;50.934;6.776;2023-10-31T09:43:26;2.63;;;1.90;;
4825;SDS011;2427;50.934;6.776;2023-10-31T09:45:52;2.37;;;2.13;;
4825;SDS011;2427;50.934;6.776;2023-10-31T09:48:18;2.50;;;1.67;;
4825;SDS011;2427;50.934;6.776;2023-10-31T09:50:45;2.67;;;2.00;;
4825;SDS011;2427;50.934;6.776;2023-10-31T09:53:12;2.10;;;1.43;;
4825;SDS011;2427;50.934;6.776;2023-10-31T09:55:41;3.87;;;1.83;;
4825;SDS011;2427;50.934;6.776;2023-10-31T09:58:08;1.90;;;1.37;;
4825;SDS011;2427;50.934;6.776;2023-10-31T10:00:34;1.40;;;1.30;;
4825;SDS011;2427;50.934;6.776;2023-10-31T10:03:02;2.23;;;1.40;;
4825;SDS011;2427;50.934;6.776;2023-10-31T10:05:28;2.23;;;1.30;;
4825;SDS011;2427;50.934;6.776;2023-10-31T10:07:56;2.23;;;1.20;;
4825;SDS011;2427;50.934;6.776;2023-10-31T10:10:23;4.30;;;0.90;;
4825;SDS011;2427;50.934;6.776;2023-10-31T10:12:51;3.40;;;1.37;;
4825;SDS011;2427;50.934;6.776;2023-10-31T10:15:17;3.93;;;1.73;;
4825;SDS011;2427;50.934;6.776;2023-10-31T10:17:49;1.17;;;0.97;;
4825;SDS011;2427;50.934;6.776;2023-10-31T10:20:16;1.77;;;1.10;;
4825;SDS011;2427;50.934;6.776;2023-10-31T10:22:44;3.30;;;1.40;;
4825;SDS011;2427;50.934;6.776;2023-10-31T10:25:10;3.00;;;1.00;;
4825;SDS011;2427;50.934;6.776;2023-10-31T10:27:41;2.40;;;1.10;;
4825;SDS011;2427;50.934;6.776;2023-10-31T10:30:07;1.57;;;1.00;;
4825;SDS011;2427;50.934;6.776;2023-10-31T10:32:34;2.17;;;1.10;;
4825;SDS011;2427;50.934;6.776;2023-10-31T10:34:59;2.80;;;1.27;;
4825;SDS011;2427;50.934;6.776;2023-10-31T10:37:26;1.43;;;1.07;;
4825;SDS011;2427;50.934;6.776;2023-10-31T10:39:52;2.00;;;1.13;;
4825;SDS011;2427;50.934;6.776;2023-10-31T10:43:04;1.40;;;0.83;;
4825;SDS011;2427;50.934;6.776;2023-10-31T10:45:14;3.07;;;1.00;;
4825;SDS011;2427;50.934;6.776;2023-10-31T10:47:45;1.53;;;1.00;;
4825;SDS011;2427;50.934;6.776;2023-10-31T10:50:12;4.03;;;1.03;;
4825;SDS011;2427;50.934;6.776;2023-10-31T10:52:38;1.87;;;0.90;;
4825;SDS011;2427;50.934;6.776;2023-10-31T10:57:49;1.03;;;0.70;;
4825;SDS011;2427;50.934;6.776;2023-10-31T11:00:25;7.13;;;0.97;;
4825;SDS011;2427;50.934;6.776;2023-10-31T11:02:52;1.00;;;0.90;;
4825;SDS011;2427;50.934;6.776;2023-10-31T11:05:18;1.10;;;0.80;;
4825;SDS011;2427;50.934;6.776;2023-10-31T11:07:44;1.00;;;0.90;;
4825;SDS011;2427;50.934;6.776;2023-10-31T11:10:11;1.30;;;0.90;;
4825;SDS011;2427;50.934;6.776;2023-10-31T11:12:37;1.57;;;0.87;;
4825;SDS011;2427;50.934;6.776;2023-10-31T11:15:04;1.10;;;0.80;;
4825;SDS011;2427;50.934;6.776;2023-10-31T11:17:36;2.33;;;1.07;;
4825;SDS011;2427;50.934;6.776;2023-10-31T11:20:03;1.50;;;1.20;;
4825;SDS011;2427;50.934;6.776;2023-10-31T11:22:36;1.10;;;1.00;;
4825;SDS011;2427;50.934;6.776;2023-10-31T11:25:03;1.60;;;0.90;;
4825;SDS011;2427;50.934;6.776;2023-10-31T11:27:30;1.00;;;0.90;;
4825;SDS011;2427;50.934;6.776;2023-10-31T11:30:00;1.50;;;0.90;;
4825;SDS011;2427;50.934;6.776;2023-10-31T11:32:26;1.50;;;1.00;;
4825;SDS011;2427;50.934;6.776;2023-10-31T11:34:52;2.50;;;0.90;;
4825;SDS011;2427;50.934;6.776;2023-10-31T11:37:18;1.90;;;0.70;;
4825;SDS011;2427;50.934;6.776;2023-10-31T11:42:38;2.60;;;1.00;;
4825;SDS011;2427;50.934;6.776;2023-10-31T11:45:04;1.70;;;1.00;;
4825;SDS011;2427;50.934;6.776;2023-10-31T11:47:46;1.00;;;0.70;;
4825;SDS011;2427;50.934;6.776;2023-10-31T11:50:15;1.40;;;0.90;;
4825;SDS011;2427;50.934;6.776;2023-10-31T11:52:41;4.50;;;0.73;;
4825;SDS011;2427;50.934;6.776;2023-10-31T11:55:10;1.57;;;0.90;;
4825;SDS011;2427;50.934;6.776;2023-10-31T11:57:36;1.00;;;0.73;;
4825;SDS011;2427;50.934;6.776;2023-10-31T12:00:03;2.03;;;1.10;;
4825;SDS011;2427;50.934;6.776;2023-10-31T12:02:29;2.57;;;1.00;;
4825;SDS011;2427;50.934;6.776;2023-10-31T12:05:11;1.10;;;0.90;;
4825;SDS011;2427;50.934;6.776;2023-10-31T12:07:44;2.80;;;0.97;;
4825;SDS011;2427;50.934;6.776;2023-10-31T12:10:10;1.90;;;1.17;;
4825;SDS011;2427;50.934;6.776;2023-10-31T12:12:37;1.60;;;1.00;;
4825;SDS011;2427;50.934;6.776;2023-10-31T12:15:06;5.17;;;1.20;;
4825;SDS011;2427;50.934;6.776;2023-10-31T12:17:35;1.70;;;1.13;;
4825;SDS011;2427;50.934;6.776;2023-10-31T12:20:07;2.77;;;1.10;;
4825;SDS011;2427;50.934;6.776;2023-10-31T12:22:34;4.60;;;1.10;;
4825;SDS011;2427;50.934;6.776;2023-10-31T12:25:01;2.80;;;1.10;;
4825;SDS011;2427;50.934;6.776;2023-10-31T12:27:49;1.33;;;1.00;;
4825;SDS011;2427;50.934;6.776;2023-10-31T12:30:18;2.10;;;1.00;;
4825;SDS011;2427;50.934;6.776;2023-10-31T12:32:44;1.67;;;0.90;;
4825;SDS011;2427;50.934;6.776;2023-10-31T12:35:20;2.50;;;1.00;;
4825;SDS011;2427;50.934;6.776;2023-10-31T12:37:47;4.70;;;1.00;;
4825;SDS011;2427;50.934;6.776;2023-10-31T12:40:15;3.20;;;0.87;;
4825;SDS011;2427;50.934;6.776;2023-10-31T12:42:43;5.77;;;1.27;;
4825;SDS011;2427;50.934;6.776;2023-10-31T12:45:09;2.37;;;0.90;;
4825;SDS011;2427;50.934;6.776;2023-10-31T12:47:36;1.30;;;1.00;;
4825;SDS011;2427;50.934;6.776;2023-10-31T12:50:06;3.23;;;1.07;;
4825;SDS011;2427;50.934;6.776;2023-10-31T12:52:54;10.00;;;1.73;;
4825;SDS011;2427;50.934;6.776;2023-10-31T12:55:22;4.47;;;1.33;;
4825;SDS011;2427;50.934;6.776;2023-10-31T12:57:50;2.60;;;1.20;;
4825;SDS011;2427;50.934;6.776;2023-10-31T13:00:17;2.60;;;1.10;;
4825;SDS011;2427;50.934;6.776;2023-10-31T13:02:50;1.53;;;1.23;;
4825;SDS011;2427;50.934;6.776;2023-10-31T13:05:26;4.03;;;1.33;;
4825;SDS011;2427;50.934;6.776;2023-10-31T13:07:53;4.33;;;1.20;;
4825;SDS011;2427;50.934;6.776;2023-10-31T13:10:21;3.77;;;0.93;;
4825;SDS011;2427;50.934;6.776;2023-10-31T13:12:48;6.07;;;1.10;;
4825;SDS011;2427;50.934;6.776;2023-10-31T13:15:18;7.07;;;1.07;;
4825;SDS011;2427;50.934;6.776;2023-10-31T13:17:45;2.20;;;1.20;;
4825;SDS011;2427;50.934;6.776;2023-10-31T13:20:12;5.13;;;1.00;;
4825;SDS011;2427;50.934;6.776;2023-10-31T13:22:39;3.77;;;1.50;;
4825;SDS011;2427;50.934;6.776;2023-10-31T13:25:06;3.20;;;1.00;;
4825;SDS011;2427;50.934;6.776;2023-10-31T13:27:35;2.63;;;1.10;;
4825;SDS011;2427;50.934;6.776;2023-10-31T13:30:03;1.70;;;0.93;;
4825;SDS011;2427;50.934;6.776;2023-10-31T13:32:30;2.47;;;0.87;;
4825;SDS011;2427;50.934;6.776;2023-10-31T13:34:56;2.20;;;1.20;;
4825;SDS011;2427;50.934;6.776;2023-10-31T13:37:21;3.00;;;1.20;;
4825;SDS011;2427;50.934;6.776;2023-10-31T13:39:47;5.13;;;1.20;;
4825;SDS011;2427;50.934;6.776;2023-10-31T13:42:13;2.23;;;0.97;;
4825;SDS011;2427;50.934;6.776;2023-10-31T13:44:42;3.53;;;1.23;;
4825;SDS011;2427;50.934;6.776;2023-10-31T13:47:07;1.43;;;1.10;;
4825;SDS011;2427;50.934;6.776;2023-10-31T13:49:34;4.80;;;1.63;;
4825;SDS011;2427;50.934;6.776;2023-10-31T13:52:00;1.90;;;1.23;;
4825;SDS011;2427;50.934;6.776;2023-10-31T13:54:25;2.27;;;1.43;;
4825;SDS011;2427;50.934;6.776;2023-10-31T13:56:51;2.53;;;1.00;;
4825;SDS011;2427;50.934;6.776;2023-10-31T13:59:17;5.03;;;1.33;;
4825;SDS011;2427;50.934;6.776;2023-10-31T14:01:43;4.63;;;1.40;;
4825;SDS011;2427;50.934;6.776;2023-10-31T14:04:10;7.03;;;1.20;;
4825;SDS011;2427;50.934;6.776;2023-10-31T14:06:38;2.00;;;0.90;;
4825;SDS011;2427;50.934;6.776;2023-10-31T14:09:04;2.13;;;0.80;;
4825;SDS011;2427;50.934;6.776;2023-10-31T14:11:32;2.67;;;0.70;;
4825;SDS011;2427;50.934;6.776;2023-10-31T14:13:58;1.80;;;1.00;;
4825;SDS011;2427;50.934;6.776;2023-10-31T14:16:28;2.90;;;1.17;;
4825;SDS011;2427;50.934;6.776;2023-10-31T14:18:55;1.93;;;1.17;;
4825;SDS011;2427;50.934;6.776;2023-10-31T14:21:20;2.07;;;1.20;;
4825;SDS011;2427;50.934;6.776;2023-10-31T14:23:46;1.87;;;0.93;;
4825;SDS011;2427;50.934;6.776;2023-10-31T14:26:18;3.90;;;1.00;;
4825;SDS011;2427;50.934;6.776;2023-10-31T14:28:45;8.10;;;1.23;;
4825;SDS011;2427;50.934;6.776;2023-10-31T14:31:10;3.57;;;1.37;;
4825;SDS011;2427;50.934;6.776;2023-10-31T14:33:36;3.37;;;1.10;;
4825;SDS011;2427;50.934;6.776;2023-10-31T14:36:02;2.97;;;0.83;;
4825;SDS011;2427;50.934;6.776;2023-10-31T14:38:27;2.80;;;1.00;;
4825;SDS011;2427;50.934;6.776;2023-10-31T14:40:53;1.53;;;0.87;;
4825;SDS011;2427;50.934;6.776;2023-10-31T14:43:18;3.33;;;1.13;;
4825;SDS011;2427;50.934;6.776;2023-10-31T14:45:44;2.30;;;1.00;;
4825;SDS011;2427;50.934;6.776;2023-10-31T14:48:10;1.53;;;0.97;;
4825;SDS011;2427;50.934;6.776;2023-10-31T14:50:35;1.93;;;1.10;;
4825;SDS011;2427;50.934;6.776;2023-10-31T14:53:01;5.63;;;1.20;;
4825;SDS011;2427;50.934;6.776;2023-10-31T14:55:27;4.20;;;1.40;;
4825;SDS011;2427;50.934;6.776;2023-10-31T14:57:52;3.00;;;1.20;;
4825;SDS011;2427;50.934;6.776;2023-10-31T15:00:18;4.47;;;1.17;;
4825;SDS011;2427;50.934;6.776;2023-10-31T15:02:43;3.83;;;1.30;;
4825;SDS011;2427;50.934;6.776;2023-10-31T15:05:09;2.87;;;1.20;;
4825;SDS011;2427;50.934;6.776;2023-10-31T15:07:35;4.23;;;1.40;;
4825;SDS011;2427;50.934;6.776;2023-10-31T15:10:01;3.87;;;1.20;;
4825;SDS011;2427;50.934;6.776;2023-10-31T15:12:28;3.97;;;1.30;;
4825;SDS011;2427;50.934;6.776;2023-10-31T15:14:53;4.87;;;1.37;;
4825;SDS011;2427;50.934;6.776;2023-10-31T15:17:20;1.63;;;1.00;;
4825;SDS011;2427;50.934;6.776;2023-10-31T15:19:45;1.70;;;1.20;;
4825;SDS011;2427;50.934;6.776;2023-10-31T15:22:11;3.63;;;1.13;;
4825;SDS011;2427;50.934;6.776;2023-10-31T15:24:37;1.30;;;1.10;;
4825;SDS011;2427;50.934;6.776;2023-10-31T15:27:02;3.93;;;1.00;;